Time;durP1;ratioP1;P1;durP2;ratioP2;P2;SDS_P1;SDS_P2;PMS_P1;PMS_P2;Temp;Humidity;BMP_temperature;BMP_pressure;BME280_temperature;BME280_humidity;BME280_pressure;Samples;Min_cycle;Max_cycle;Signal;HPM_P1;HPM_P2
2023/08/26 00:00:16;;;;;;;0.30;0.30;;;17.50;99.90;;;;;;4995976;28;20100;-76
2023/08/26 00:02:42;;;;;;;0.40;0.40;;;17.40;99.90;;;;;;5006868;28;20050;-77
2023/08/26 00:05:08;;;;;;;0.47;0.47;;;17.40;99.90;;;;;;4989240;28;20774;-76
2023/08/26 00:07:33;;;;;;;0.30;0.30;;;17.40;99.90;;;;;;4986784;28;20042;-77
2023/08/26 00:09:59;;;;;;;0.40;0.40;;;17.40;99.90;;;;;;5006468;28;20054;-77
2023/08/26 00:12:25;;;;;;;0.40;0.40;;;17.40;99.90;;;;;;4994137;28;20145;-76
2023/08/26 00:14:50;;;;;;;0.30;0.30;;;17.40;99.90;;;;;;4996938;28;20057;-77
2023/08/26 00:17:17;;;;;;;0.30;0.30;;;17.40;99.90;;;;;;4981928;28;20487;-76
2023/08/26 00:19:44;;;;;;;0.73;0.67;;;17.30;99.90;;;;;;5005070;28;20046;-77
2023/08/26 00:22:10;;;;;;;0.55;0.55;;;17.30;99.90;;;;;;5009022;28;20277;-76
2023/08/26 00:24:36;;;;;;;0.30;0.30;;;17.30;99.90;;;;;;5005197;28;20495;-77
2023/08/26 00:27:02;;;;;;;0.77;0.77;;;17.20;99.90;;;;;;4987567;28;20277;-76
2023/08/26 00:29:28;;;;;;;0.70;0.70;;;17.20;99.90;;;;;;4987521;28;20047;-77
2023/08/26 00:31:54;;;;;;;0.47;0.47;;;17.20;99.90;;;;;;4981173;28;20054;-77
2023/08/26 00:34:19;;;;;;;0.50;0.50;;;17.10;99.90;;;;;;4980967;28;20419;-77
2023/08/26 00:36:45;;;;;;;0.63;0.60;;;17.10;99.90;;;;;;4988486;28;20060;-77
2023/08/26 00:39:11;;;;;;;0.40;0.40;;;17.10;99.90;;;;;;4982951;28;20042;-77
2023/08/26 00:41:36;;;;;;;0.47;0.47;;;17.00;99.90;;;;;;5006235;28;20053;-77
2023/08/26 00:44:02;;;;;;;0.93;0.82;;;17.00;99.90;;;;;;4989639;28;20547;-77
2023/08/26 00:46:29;;;;;;;0.20;0.20;;;17.00;99.90;;;;;;4983803;28;20046;-77
2023/08/26 00:48:54;;;;;;;0.40;0.40;;;16.90;99.90;;;;;;5005377;28;20123;-77
2023/08/26 00:51:21;;;;;;;0.52;0.52;;;16.90;99.90;;;;;;5002041;28;20058;-77
2023/08/26 00:53:48;;;;;;;0.50;0.50;;;16.90;99.90;;;;;;5001333;28;20050;-77
2023/08/26 00:56:14;;;;;;;0.20;0.20;;;16.90;99.90;;;;;;4985680;28;20049;-77
2023/08/26 00:58:40;;;;;;;0.57;0.57;;;16.90;99.90;;;;;;4987478;28;20518;-77
2023/08/26 01:01:05;;;;;;;0.30;0.30;;;16.90;99.90;;;;;;4989072;28;20054;-77
2023/08/26 01:03:32;;;;;;;0.30;0.30;;;16.80;99.90;;;;;;4982130;28;20045;-77
2023/08/26 01:05:58;;;;;;;0.30;0.30;;;16.80;99.90;;;;;;4987075;28;20096;-77
2023/08/26 01:08:24;;;;;;;0.45;0.45;;;16.80;99.90;;;;;;5000984;28;20050;-77
2023/08/26 01:11:14;;;;;;;0.38;0.38;;;16.80;99.90;;;;;;4986306;28;20046;-77
2023/08/26 01:13:57;;;;;;;0.75;0.75;;;16.70;99.90;;;;;;4990835;28;20042;-77
2023/08/26 01:16:23;;;;;;;0.30;0.30;;;16.70;99.90;;;;;;4996578;28;20096;-77
2023/08/26 01:18:50;;;;;;;0.30;0.30;;;16.70;99.90;;;;;;4993921;28;20069;-77
2023/08/26 01:21:19;;;;;;;1.25;0.50;;;16.70;99.90;;;;;;5007290;28;20042;-77
2023/08/26 01:23:46;;;;;;;0.30;0.30;;;16.70;99.90;;;;;;4984863;28;20393;-76
2023/08/26 01:26:12;;;;;;;0.63;0.40;;;16.60;99.90;;;;;;4975735;28;20069;-76
2023/08/26 01:28:38;;;;;;;0.50;0.50;;;16.60;99.90;;;;;;4987856;28;20041;-77
2023/08/26 01:31:10;;;;;;;0.68;0.63;;;16.60;99.90;;;;;;4989690;28;20089;-77
2023/08/26 01:33:48;;;;;;;0.45;0.45;;;16.60;99.90;;;;;;5006400;28;20046;-77
2023/08/26 01:36:17;;;;;;;;;;;16.60;99.90;;;;;;4999328;28;20046;-77
2023/08/26 01:38:44;;;;;;;0.50;0.50;;;16.60;99.90;;;;;;4982255;28;19980;-77
2023/08/26 01:41:14;;;;;;;0.60;0.60;;;16.50;99.90;;;;;;5007939;28;20507;-77
2023/08/26 01:43:40;;;;;;;0.50;0.50;;;16.50;99.90;;;;;;5002211;28;20416;-77
2023/08/26 01:46:06;;;;;;;0.20;0.20;;;16.50;99.90;;;;;;4986982;28;20038;-77
2023/08/26 01:48:31;;;;;;;0.40;0.40;;;16.50;99.90;;;;;;4987972;28;20101;-77
2023/08/26 01:50:57;;;;;;;0.32;0.32;;;16.50;99.90;;;;;;4990288;28;20509;-77
2023/08/26 01:53:22;;;;;;;0.40;0.40;;;16.40;99.90;;;;;;4983972;28;20479;-77
2023/08/26 01:55:48;;;;;;;0.40;0.40;;;16.40;99.90;;;;;;4986885;28;20062;-77
2023/08/26 01:58:13;;;;;;;0.60;0.60;;;16.30;99.90;;;;;;4983319;28;20080;-77
2023/08/26 02:00:39;;;;;;;0.47;0.47;;;16.30;99.90;;;;;;4984492;28;20046;-77
2023/08/26 02:03:05;;;;;;;0.50;0.50;;;16.40;99.90;;;;;;5005094;28;20046;-77
2023/08/26 02:05:30;;;;;;;0.22;0.22;;;16.30;99.90;;;;;;4992595;28;20038;-77
2023/08/26 02:07:56;;;;;;;0.40;0.40;;;16.30;99.90;;;;;;5001987;28;20045;-77
2023/08/26 02:10:21;;;;;;;0.38;0.38;;;16.30;99.90;;;;;;5000151;28;20041;-77
2023/08/26 02:12:47;;;;;;;0.50;0.50;;;16.20;99.90;;;;;;4977946;28;20046;-77
2023/08/26 02:15:12;;;;;;;0.30;0.30;;;16.20;99.90;;;;;;4999858;28;20380;-76
2023/08/26 02:17:39;;;;;;;0.63;0.63;;;16.20;99.90;;;;;;5003062;28;20056;-77
2023/08/26 02:20:07;;;;;;;0.40;0.40;;;16.20;99.90;;;;;;4982109;28;20145;-77
2023/08/26 02:22:33;;;;;;;;;;;16.10;99.90;;;;;;5005488;28;20053;-77
2023/08/26 02:24:58;;;;;;;0.30;0.30;;;16.10;99.90;;;;;;5005825;28;20374;-77
2023/08/26 02:27:24;;;;;;;0.30;0.30;;;16.10;99.90;;;;;;4987448;28;20073;-77
2023/08/26 02:29:49;;;;;;;0.38;0.38;;;16.10;99.90;;;;;;4989649;28;20045;-77
2023/08/26 02:32:15;;;;;;;0.40;0.40;;;16.00;99.90;;;;;;5005350;28;20065;-76
2023/08/26 02:34:40;;;;;;;0.52;0.52;;;16.00;99.90;;;;;;4999795;28;20551;-77
2023/08/26 02:37:06;;;;;;;0.68;0.68;;;16.00;99.90;;;;;;4990527;28;20045;-77
2023/08/26 02:39:31;;;;;;;0.30;0.30;;;16.00;99.90;;;;;;4981832;28;20056;-76
2023/08/26 02:41:57;;;;;;;0.28;0.28;;;15.90;99.90;;;;;;4988091;28;20053;-77
2023/08/26 02:44:23;;;;;;;0.30;0.30;;;15.90;99.90;;;;;;5002604;28;20041;-76
2023/08/26 02:46:48;;;;;;;0.40;0.40;;;15.90;99.90;;;;;;5004976;28;20396;-77
2023/08/26 02:49:14;;;;;;;0.50;0.50;;;15.90;99.90;;;;;;4998592;28;20132;-77
2023/08/26 02:51:39;;;;;;;0.30;0.30;;;15.90;99.90;;;;;;5001542;28;20468;-77
2023/08/26 02:54:05;;;;;;;0.70;0.70;;;15.90;99.90;;;;;;4982614;28;20042;-77
2023/08/26 02:56:31;;;;;;;0.45;0.45;;;15.80;99.90;;;;;;4987081;28;20054;-77
2023/08/26 02:58:57;;;;;;;0.30;0.30;;;15.80;99.90;;;;;;4991843;28;20061;-77
2023/08/26 03:01:24;;;;;;;0.32;0.32;;;15.80;99.90;;;;;;5003443;28;20055;-77
2023/08/26 03:03:49;;;;;;;0.30;0.30;;;15.80;99.90;;;;;;5002596;28;20399;-77
2023/08/26 03:06:15;;;;;;;0.43;0.43;;;15.80;99.90;;;;;;4995725;28;20046;-77
2023/08/26 03:08:41;;;;;;;0.40;0.40;;;15.80;99.90;;;;;;4989544;28;20052;-77
2023/08/26 03:11:09;;;;;;;0.30;0.30;;;15.80;99.90;;;;;;4991393;28;20121;-77
2023/08/26 03:13:35;;;;;;;0.43;0.43;;;15.80;99.90;;;;;;4990909;28;20605;-77
2023/08/26 03:16:09;;;;;;;0.40;0.40;;;15.70;99.90;;;;;;4991593;28;20507;-77
2023/08/26 03:18:36;;;;;;;0.40;0.40;;;15.70;99.90;;;;;;4983904;28;20057;-77
2023/08/26 03:21:03;;;;;;;0.50;0.50;;;15.70;99.90;;;;;;4993551;28;20399;-77
2023/08/26 03:23:29;;;;;;;0.40;0.40;;;15.70;99.90;;;;;;4990958;28;20050;-77
2023/08/26 03:25:55;;;;;;;0.32;0.32;;;15.70;99.90;;;;;;4986015;28;20046;-77
2023/08/26 03:28:21;;;;;;;0.50;0.50;;;15.70;99.90;;;;;;4992802;28;20144;-76
2023/08/26 03:30:47;;;;;;;0.30;0.30;;;15.70;99.90;;;;;;5006101;28;20137;-76
2023/08/26 03:33:13;;;;;;;0.35;0.35;;;15.70;99.90;;;;;;4985925;28;20046;-76
2023/08/26 03:35:41;;;;;;;0.63;0.40;;;15.70;99.90;;;;;;4985436;28;20053;-76
2023/08/26 03:38:07;;;;;;;0.30;0.30;;;15.60;99.90;;;;;;4991228;28;20476;-76
2023/08/26 03:40:33;;;;;;;0.20;0.20;;;15.60;99.90;;;;;;4987950;28;20101;-76
2023/08/26 03:43:01;;;;;;;0.45;0.45;;;15.60;99.90;;;;;;5002499;28;20053;-77
2023/08/26 03:45:29;;;;;;;0.32;0.32;;;15.60;99.90;;;;;;5008667;28;20049;-76
2023/08/26 03:47:55;;;;;;;0.38;0.38;;;15.60;99.90;;;;;;5008228;28;20144;-77
2023/08/26 03:50:21;;;;;;;0.30;0.30;;;15.60;99.90;;;;;;4983177;28;20129;-76
2023/08/26 03:52:46;;;;;;;0.40;0.40;;;15.50;99.90;;;;;;4982823;28;20108;-76
2023/08/26 03:55:12;;;;;;;0.30;0.30;;;15.50;99.90;;;;;;4983735;28;20070;-77
2023/08/26 03:57:38;;;;;;;0.40;0.40;;;15.50;99.90;;;;;;5001833;28;20053;-76
2023/08/26 04:00:04;;;;;;;0.40;0.40;;;15.40;99.90;;;;;;4992113;28;20104;-77
2023/08/26 04:02:29;;;;;;;0.32;0.32;;;15.40;99.90;;;;;;4982712;28;20472;-79
2023/08/26 04:04:55;;;;;;;0.38;0.38;;;15.40;99.90;;;;;;4980705;28;20042;-80
2023/08/26 04:07:22;;;;;;;0.30;0.30;;;15.30;99.90;;;;;;4986916;28;20471;-79
2023/08/26 04:09:47;;;;;;;0.38;0.38;;;15.30;99.90;;;;;;4985158;28;20105;-78
2023/08/26 04:12:13;;;;;;;0.40;0.40;;;15.30;99.90;;;;;;5001905;28;20042;-79
2023/08/26 04:14:39;;;;;;;0.52;0.52;;;15.20;99.90;;;;;;4987696;28;20076;-78
2023/08/26 04:17:04;;;;;;;0.30;0.30;;;15.20;99.90;;;;;;4984751;28;20059;-78
2023/08/26 04:19:31;;;;;;;0.30;0.30;;;15.10;99.90;;;;;;4989503;28;20042;-78
2023/08/26 04:22:00;;;;;;;0.30;0.30;;;15.10;99.90;;;;;;4989774;28;20072;-78
2023/08/26 04:24:26;;;;;;;0.47;0.47;;;15.00;99.90;;;;;;4990616;28;20084;-78
2023/08/26 04:26:52;;;;;;;0.30;0.30;;;15.00;99.90;;;;;;5002533;28;20042;-78
2023/08/26 04:29:18;;;;;;;0.50;0.50;;;15.00;99.90;;;;;;5006384;28;20056;-78
2023/08/26 04:31:43;;;;;;;0.30;0.30;;;14.90;99.90;;;;;;4988826;28;20042;-78
2023/08/26 04:34:09;;;;;;;0.22;0.22;;;14.80;99.90;;;;;;4988369;28;20049;-78
2023/08/26 04:36:34;;;;;;;0.20;0.20;;;14.90;99.90;;;;;;5005832;28;20483;-78
2023/08/26 04:39:00;;;;;;;0.35;0.35;;;14.80;99.90;;;;;;4985138;28;20053;-78
2023/08/26 04:41:26;;;;;;;0.40;0.40;;;14.80;99.90;;;;;;4992512;28;20468;-78
2023/08/26 04:43:55;;;;;;;0.30;0.30;;;14.80;99.90;;;;;;4989396;28;20041;-79
2023/08/26 04:46:21;;;;;;;0.32;0.32;;;14.80;99.90;;;;;;4991894;28;20053;-78
2023/08/26 04:48:47;;;;;;;0.30;0.30;;;14.70;99.90;;;;;;4987448;28;20542;-79
2023/08/26 04:51:12;;;;;;;0.40;0.40;;;14.70;99.90;;;;;;4998485;28;20142;-78
2023/08/26 04:53:38;;;;;;;0.30;0.30;;;14.70;99.90;;;;;;5002558;28;20499;-79
2023/08/26 04:56:04;;;;;;;0.30;0.30;;;14.70;99.90;;;;;;5008745;28;20057;-79
2023/08/26 04:58:31;;;;;;;0.30;0.30;;;14.60;99.90;;;;;;5001200;28;20473;-78
2023/08/26 05:00:57;;;;;;;0.30;0.30;;;14.60;99.90;;;;;;4986147;28;20110;-79
2023/08/26 05:03:23;;;;;;;0.28;0.28;;;14.60;99.90;;;;;;5005698;28;20058;-79
2023/08/26 05:05:48;;;;;;;0.40;0.40;;;14.70;99.90;;;;;;4986652;28;20073;-79
2023/08/26 05:08:14;;;;;;;0.40;0.40;;;14.70;99.90;;;;;;4966452;28;20482;-79
2023/08/26 05:10:40;;;;;;;0.40;0.40;;;14.70;99.90;;;;;;5000923;28;20050;-78
2023/08/26 05:13:06;;;;;;;0.20;0.20;;;14.70;99.90;;;;;;4999826;28;20042;-79
2023/08/26 05:15:32;;;;;;;0.75;0.75;;;14.70;99.90;;;;;;5007010;28;20056;-79
2023/08/26 05:17:58;;;;;;;0.35;0.35;;;14.70;99.90;;;;;;4986861;28;20042;-78
2023/08/26 05:20:24;;;;;;;0.30;0.30;;;14.70;99.90;;;;;;4983929;28;20314;-78
2023/08/26 05:22:49;;;;;;;0.60;0.60;;;14.80;99.90;;;;;;4986232;28;20121;-79
2023/08/26 05:25:15;;;;;;;0.32;0.32;;;14.80;99.90;;;;;;4980757;28;20136;-79
2023/08/26 05:27:41;;;;;;;0.32;0.32;;;14.80;99.90;;;;;;4986672;28;20536;-78
2023/08/26 05:30:07;;;;;;;0.40;0.40;;;14.90;99.90;;;;;;5004718;28;20111;-78
2023/08/26 05:32:33;;;;;;;0.30;0.30;;;14.90;99.90;;;;;;4986800;28;20124;-79
2023/08/26 05:34:58;;;;;;;0.30;0.30;;;14.90;99.90;;;;;;5005276;28;20556;-79
2023/08/26 05:37:24;;;;;;;0.30;0.30;;;14.90;99.90;;;;;;4984217;28;20051;-79
2023/08/26 05:39:49;;;;;;;0.70;0.70;;;14.90;99.90;;;;;;4988338;28;20053;-78
2023/08/26 05:42:15;;;;;;;0.20;0.20;;;15.00;99.90;;;;;;4998045;28;20481;-78
2023/08/26 05:44:41;;;;;;;0.40;0.40;;;15.00;99.90;;;;;;4996876;28;20081;-79
2023/08/26 05:47:07;;;;;;;0.40;0.40;;;15.10;99.90;;;;;;4980006;28;20053;-79
2023/08/26 05:49:32;;;;;;;0.55;0.55;;;15.20;99.90;;;;;;4997810;28;20046;-78
2023/08/26 05:51:58;;;;;;;0.65;0.65;;;15.20;99.90;;;;;;4976324;28;20487;-79
2023/08/26 05:54:24;;;;;;;0.50;0.50;;;15.30;99.90;;;;;;4979486;28;20045;-79
2023/08/26 05:56:50;;;;;;;0.40;0.40;;;15.30;99.90;;;;;;4962418;28;20062;-79
2023/08/26 05:59:15;;;;;;;0.35;0.35;;;15.40;99.90;;;;;;4977536;28;20498;-79
2023/08/26 06:01:42;;;;;;;0.40;0.40;;;15.40;99.90;;;;;;4977970;28;20144;-78
2023/08/26 06:04:08;;;;;;;0.32;0.32;;;15.40;99.90;;;;;;4971947;28;20053;-79
2023/08/26 06:06:34;;;;;;;0.38;0.38;;;15.40;99.90;;;;;;4979355;28;20546;-78
2023/08/26 06:08:59;;;;;;;0.35;0.35;;;15.50;99.90;;;;;;4972278;28;20113;-79
2023/08/26 06:11:26;;;;;;;0.40;0.40;;;15.50;99.90;;;;;;4982632;28;20038;-78
2023/08/26 06:13:51;;;;;;;0.30;0.30;;;15.50;99.90;;;;;;4979606;28;20060;-79
2023/08/26 06:16:20;;;;;;;0.75;0.60;;;15.50;99.90;;;;;;4980125;28;20049;-78
2023/08/26 06:18:49;;;;;;;0.60;0.60;;;15.50;99.90;;;;;;4975946;28;20298;-79
2023/08/26 06:21:15;;;;;;;0.40;0.40;;;15.60;99.90;;;;;;4980214;28;20041;-78
2023/08/26 06:23:41;;;;;;;0.40;0.40;;;15.60;99.90;;;;;;4980077;28;20100;-77
2023/08/26 06:26:07;;;;;;;0.55;0.55;;;15.60;99.90;;;;;;4992469;28;20507;-78
2023/08/26 06:28:32;;;;;;;0.60;0.60;;;15.60;99.90;;;;;;4981280;28;20133;-78
2023/08/26 06:30:59;;;;;;;0.77;0.77;;;15.60;99.90;;;;;;4962795;28;20054;-79
2023/08/26 06:33:25;;;;;;;1.25;1.15;;;15.70;99.90;;;;;;4978655;28;20045;-78
2023/08/26 06:35:51;;;;;;;0.50;0.50;;;15.70;99.90;;;;;;4983161;28;20052;-77
2023/08/26 06:38:17;;;;;;;0.55;0.55;;;15.70;99.90;;;;;;4977111;28;20388;-77
2023/08/26 06:40:43;;;;;;;0.85;0.85;;;15.70;99.90;;;;;;4979709;28;20049;-77
2023/08/26 06:43:08;;;;;;;0.57;0.57;;;15.70;99.90;;;;;;4996049;28;20054;-78
2023/08/26 06:45:34;;;;;;;0.77;0.77;;;15.70;99.90;;;;;;4979143;28;20052;-78
2023/08/26 06:47:59;;;;;;;0.45;0.45;;;15.70;99.90;;;;;;4975905;28;20077;-77
2023/08/26 06:50:25;;;;;;;0.70;0.70;;;15.70;99.90;;;;;;4994106;28;20046;-76
2023/08/26 06:52:51;;;;;;;0.40;0.40;;;15.80;99.90;;;;;;4980888;28;20141;-76
2023/08/26 06:55:18;;;;;;;0.50;0.50;;;15.80;99.90;;;;;;4978417;28;20053;-78
2023/08/26 06:57:44;;;;;;;0.95;0.95;;;15.80;99.90;;;;;;4997665;28;20061;-77
2023/08/26 07:00:12;;;;;;;0.35;0.35;;;15.80;99.90;;;;;;4998011;28;20431;-76
2023/08/26 07:02:37;;;;;;;;;;;15.90;99.90;;;;;;4995930;28;20427;-76
2023/08/26 07:05:04;;;;;;;0.55;0.55;;;15.90;99.90;;;;;;4975072;28;19967;-77
2023/08/26 07:07:29;;;;;;;0.88;0.77;;;15.90;99.90;;;;;;4994305;28;20547;-76
2023/08/26 07:09:55;;;;;;;0.60;0.60;;;15.90;99.90;;;;;;4980013;28;20046;-78
2023/08/26 07:12:21;;;;;;;0.82;0.82;;;15.90;99.90;;;;;;4997220;28;20050;-77
2023/08/26 07:14:46;;;;;;;0.90;0.90;;;15.90;99.90;;;;;;4973615;28;20084;-77
2023/08/26 07:17:17;;;;;;;1.10;1.00;;;16.00;99.90;;;;;;4995846;28;20053;-76
2023/08/26 07:19:43;;;;;;;0.95;0.80;;;16.00;99.90;;;;;;4975248;28;20057;-77
2023/08/26 07:22:08;;;;;;;0.90;0.90;;;16.00;99.90;;;;;;4961527;28;20052;-77
2023/08/26 07:24:34;;;;;;;0.40;0.40;;;16.00;99.90;;;;;;4970582;28;20117;-76
2023/08/26 07:27:00;;;;;;;0.88;0.85;;;16.00;99.90;;;;;;4974554;28;20137;-76
2023/08/26 07:29:25;;;;;;;0.63;0.63;;;16.10;99.90;;;;;;4976460;28;20077;-77
2023/08/26 07:31:51;;;;;;;0.60;0.60;;;16.10;99.90;;;;;;4976953;28;20060;-76
2023/08/26 07:34:17;;;;;;;1.05;0.70;;;16.10;99.90;;;;;;4973666;28;20061;-76
2023/08/26 07:36:43;;;;;;;0.85;0.85;;;16.20;99.90;;;;;;4968488;28;20646;-76
2023/08/26 07:39:08;;;;;;;0.95;0.95;;;16.20;99.90;;;;;;4988398;28;20394;-76
2023/08/26 07:41:35;;;;;;;0.40;0.40;;;16.20;99.90;;;;;;4994931;28;20604;-76
2023/08/26 07:44:00;;;;;;;2.20;0.85;;;16.20;99.90;;;;;;4996668;28;20050;-76
2023/08/26 07:46:26;;;;;;;0.40;0.40;;;16.20;99.90;;;;;;4978988;28;20387;-76
2023/08/26 07:48:52;;;;;;;0.77;0.77;;;16.20;99.90;;;;;;4980580;28;20072;-76
2023/08/26 07:51:18;;;;;;;0.35;0.35;;;16.30;99.90;;;;;;4995743;28;20175;-76
2023/08/26 07:53:43;;;;;;;0.40;0.40;;;16.40;99.90;;;;;;4980419;28;20406;-76
2023/08/26 07:56:09;;;;;;;0.45;0.45;;;16.50;99.90;;;;;;4971955;28;20062;-76
2023/08/26 07:58:35;;;;;;;0.95;0.85;;;16.50;99.90;;;;;;4963453;28;20176;-77
2023/08/26 08:01:00;;;;;;;1.35;0.85;;;16.50;99.90;;;;;;4979077;28;20578;-76
2023/08/26 08:03:26;;;;;;;0.85;0.85;;;16.60;99.90;;;;;;4963480;28;20513;-77
2023/08/26 08:05:52;;;;;;;0.70;0.70;;;16.60;99.90;;;;;;4980707;28;20077;-77
2023/08/26 08:08:17;;;;;;;1.15;0.98;;;16.50;99.90;;;;;;4964798;28;20092;-75
2023/08/26 08:10:43;;;;;;;0.75;0.75;;;16.50;99.90;;;;;;4960452;28;20380;-75
2023/08/26 08:13:09;;;;;;;0.82;0.82;;;16.50;99.90;;;;;;4963754;28;20667;-75
2023/08/26 08:15:35;;;;;;;1.10;1.00;;;16.40;99.90;;;;;;4958271;28;20602;-75
2023/08/26 08:18:02;;;;;;;1.63;1.52;;;16.40;99.90;;;;;;4976535;28;20172;-76
2023/08/26 08:20:30;;;;;;;0.40;0.40;;;16.40;99.90;;;;;;4980406;28;20606;-76
2023/08/26 08:22:56;;;;;;;1.45;1.35;;;16.40;99.90;;;;;;4962536;28;20053;-75
2023/08/26 08:25:22;;;;;;;0.68;0.68;;;16.50;99.90;;;;;;4980597;28;20076;-77
2023/08/26 08:27:52;;;;;;;0.70;0.70;;;16.70;99.90;;;;;;4979816;28;20046;-75
2023/08/26 08:30:18;;;;;;;0.60;0.60;;;16.90;99.90;;;;;;4978612;28;20058;-75
2023/08/26 08:32:44;;;;;;;1.23;1.17;;;17.20;99.90;;;;;;4979964;28;20046;-76
2023/08/26 08:35:09;;;;;;;1.08;1.00;;;17.40;99.90;;;;;;4977658;28;20038;-76
2023/08/26 08:37:35;;;;;;;0.60;0.60;;;17.60;99.90;;;;;;4980609;28;20094;-76
2023/08/26 08:40:01;;;;;;;0.68;0.68;;;17.80;99.90;;;;;;4981108;28;20431;-76
2023/08/26 08:42:27;;;;;;;0.65;0.65;;;18.00;99.90;;;;;;4963048;28;20053;-77
2023/08/26 08:44:55;;;;;;;0.60;0.60;;;18.20;99.90;;;;;;4960706;28;20046;-77
2023/08/26 08:47:21;;;;;;;0.80;0.80;;;18.40;99.90;;;;;;4961693;28;20050;-77
2023/08/26 08:49:48;;;;;;;0.90;0.90;;;18.40;99.90;;;;;;4979183;28;20573;-77
2023/08/26 08:52:15;;;;;;;1.55;1.15;;;18.40;99.90;;;;;;4960965;28;20121;-77
2023/08/26 08:54:44;;;;;;;0.70;0.70;;;18.40;99.90;;;;;;4961895;28;20135;-76
2023/08/26 08:57:13;;;;;;;0.60;0.60;;;18.40;99.90;;;;;;4978758;28;20054;-77
2023/08/26 08:59:40;;;;;;;0.40;0.40;;;18.40;99.90;;;;;;4979587;28;20120;-77
2023/08/26 09:02:06;;;;;;;1.40;1.30;;;18.30;99.90;;;;;;4984594;28;20061;-75
2023/08/26 09:04:32;;;;;;;0.93;0.93;;;18.40;99.90;;;;;;4981394;28;20701;-77
2023/08/26 09:07:00;;;;;;;1.17;1.17;;;18.50;99.90;;;;;;4980913;28;20535;-77
2023/08/26 09:09:26;;;;;;;3.55;1.15;;;18.60;99.90;;;;;;4963133;28;20061;-76
2023/08/26 09:11:51;;;;;;;0.65;0.65;;;18.70;99.90;;;;;;4970318;28;20396;-76
2023/08/26 09:14:17;;;;;;;0.45;0.45;;;18.70;99.90;;;;;;4968988;28;20046;-77
2023/08/26 09:16:43;;;;;;;0.95;0.95;;;18.80;99.90;;;;;;4964609;28;20054;-76
2023/08/26 09:19:13;;;;;;;0.88;0.88;;;18.90;99.90;;;;;;4982129;28;20058;-77
2023/08/26 09:21:45;;;;;;;0.77;0.77;;;19.00;99.90;;;;;;4967418;28;20488;-76
2023/08/26 09:24:13;;;;;;;0.82;0.82;;;19.10;99.90;;;;;;4982304;28;20085;-76
2023/08/26 09:26:38;;;;;;;;;;;19.20;99.90;;;;;;4966926;28;20508;-77
2023/08/26 09:29:24;;;;;;;0.70;0.70;;;19.30;99.90;;;;;;4971527;28;20008;-77
2023/08/26 09:31:51;;;;;;;0.73;0.73;;;19.30;99.90;;;;;;4970909;28;20740;-77
2023/08/26 09:34:31;;;;;;;0.73;0.73;;;19.40;99.90;;;;;;4968106;28;20096;-77
2023/08/26 09:36:57;;;;;;;1.17;1.08;;;19.50;99.90;;;;;;4967269;28;20062;-77
2023/08/26 09:39:22;;;;;;;1.58;1.17;;;19.70;99.90;;;;;;4965735;28;20046;-77
2023/08/26 09:41:49;;;;;;;0.90;0.85;;;19.90;99.90;;;;;;4985946;28;20050;-77
2023/08/26 09:44:16;;;;;;;0.75;0.75;;;19.90;99.90;;;;;;4966014;28;20104;-77
2023/08/26 09:46:43;;;;;;;0.75;0.75;;;19.90;99.90;;;;;;4969639;28;20047;-77
2023/08/26 09:49:13;;;;;;;1.50;1.40;;;20.00;99.90;;;;;;4967664;28;20057;-77
2023/08/26 09:51:47;;;;;;;0.80;0.80;;;20.10;99.90;;;;;;4966016;28;20055;-76
2023/08/26 09:54:18;;;;;;;1.02;0.85;;;20.30;99.90;;;;;;4961149;28;20046;-76
2023/08/26 09:56:47;;;;;;;1.10;1.00;;;20.50;99.90;;;;;;4979603;28;20058;-77
2023/08/26 09:59:13;;;;;;;1.17;1.17;;;20.70;99.90;;;;;;4963206;28;20500;-76
2023/08/26 10:01:40;;;;;;;0.45;0.45;;;21.00;99.90;;;;;;4980761;28;20483;-76
2023/08/26 10:04:15;;;;;;;0.40;0.40;;;21.10;99.90;;;;;;4966762;28;20042;-76
2023/08/26 10:06:43;;;;;;;0.50;0.50;;;21.20;99.90;;;;;;4955325;28;20388;-76
2023/08/26 10:09:31;;;;;;;0.70;0.70;;;21.40;99.90;;;;;;4986727;28;20053;-76
2023/08/26 10:12:00;;;;;;;0.40;0.40;;;21.50;99.90;;;;;;4974765;28;20050;-75
2023/08/26 10:14:29;;;;;;;0.50;0.50;;;21.60;99.90;;;;;;4959736;28;20054;-75
2023/08/26 10:16:56;;;;;;;4.13;1.13;;;21.70;99.90;;;;;;4967513;28;20158;-75
2023/08/26 10:19:23;;;;;;;0.30;0.30;;;21.80;99.90;;;;;;4967421;28;20061;-76
2023/08/26 10:21:50;;;;;;;0.88;0.88;;;21.80;99.90;;;;;;4972133;28;20042;-76
2023/08/26 10:24:16;;;;;;;;;;;22.00;99.90;;;;;;4968883;28;20042;-76
2023/08/26 10:26:42;;;;;;;0.75;0.75;;;22.10;99.90;;;;;;4969611;28;19921;-75
2023/08/26 10:29:08;;;;;;;1.23;1.13;;;22.20;99.90;;;;;;4983973;28;20042;-76
2023/08/26 10:31:36;;;;;;;0.52;0.52;;;22.30;99.90;;;;;;4969608;28;20042;-76
2023/08/26 10:34:08;;;;;;;0.93;0.85;;;22.40;99.90;;;;;;4964753;28;20042;-76
2023/08/26 10:36:38;;;;;;;0.55;0.35;;;22.50;99.90;;;;;;4962239;28;20043;-77
2023/08/26 10:39:18;;;;;;;0.40;0.40;;;22.50;99.90;;;;;;4966685;28;20136;-75
2023/08/26 10:42:17;;;;;;;0.43;0.43;;;22.50;99.90;;;;;;4982644;28;20050;-77
2023/08/26 10:44:53;;;;;;;0.43;0.43;;;22.50;99.90;;;;;;4966817;28;20050;-77
2023/08/26 10:47:48;;;;;;;0.88;0.88;;;22.50;99.90;;;;;;4964807;28;20050;-76
2023/08/26 10:50:15;;;;;;;0.98;0.65;;;22.60;99.90;;;;;;4962481;28;20403;-76
2023/08/26 10:52:45;;;;;;;0.40;0.40;;;22.70;99.90;;;;;;4964546;28;20054;-75
2023/08/26 10:55:23;;;;;;;0.30;0.30;;;22.80;99.90;;;;;;4983549;28;20385;-76
2023/08/26 10:58:02;;;;;;;0.50;0.50;;;22.90;99.90;;;;;;4961832;28;20058;-75
2023/08/26 11:00:28;;;;;;;0.30;0.30;;;23.00;99.90;;;;;;4965511;28;20097;-76
2023/08/26 11:02:57;;;;;;;1.27;1.10;;;23.00;99.90;;;;;;4979535;28;20038;-77
2023/08/26 11:05:23;;;;;;;0.50;0.50;;;22.90;99.90;;;;;;4965985;28;20053;-76
2023/08/26 11:07:49;;;;;;;0.30;0.30;;;22.80;99.90;;;;;;4958505;28;20256;-76
2023/08/26 11:10:28;;;;;;;0.40;0.40;;;22.70;99.90;;;;;;4969077;28;20159;-76
2023/08/26 11:12:53;;;;;;;0.30;0.30;;;22.80;99.90;;;;;;4969339;28;20055;-76
2023/08/26 11:15:19;;;;;;;0.30;0.30;;;22.90;99.90;;;;;;4961466;28;20074;-76
2023/08/26 11:17:45;;;;;;;0.40;0.40;;;22.90;99.90;;;;;;4964465;28;20164;-75
2023/08/26 11:20:11;;;;;;;0.77;0.73;;;23.00;99.90;;;;;;4959660;28;20404;-75
2023/08/26 11:22:38;;;;;;;0.30;0.30;;;23.10;99.90;;;;;;4958507;28;20061;-75
2023/08/26 11:25:03;;;;;;;0.60;0.60;;;23.10;99.90;;;;;;4963152;28;20093;-75
2023/08/26 11:27:29;;;;;;;0.35;0.35;;;23.20;99.90;;;;;;4968612;28;20042;-75
2023/08/26 11:29:55;;;;;;;0.93;0.82;;;23.20;99.90;;;;;;4963535;28;20267;-76
2023/08/26 11:32:20;;;;;;;0.30;0.30;;;23.20;99.90;;;;;;4969906;28;20412;-75
2023/08/26 11:34:46;;;;;;;0.45;0.45;;;23.20;99.90;;;;;;4983803;28;20050;-74
2023/08/26 11:37:12;;;;;;;0.30;0.30;;;23.30;99.90;;;;;;4969763;28;20047;-75
2023/08/26 11:39:38;;;;;;;0.30;0.30;;;23.40;99.90;;;;;;4981956;28;20051;-76
2023/08/26 11:42:14;;;;;;;0.30;0.30;;;23.30;99.90;;;;;;4982642;28;20050;-76
2023/08/26 11:44:39;;;;;;;0.20;0.20;;;23.20;99.90;;;;;;4971980;28;20460;-76
2023/08/26 11:47:07;;;;;;;0.50;0.50;;;23.00;99.90;;;;;;4973004;28;20050;-76
2023/08/26 11:49:33;;;;;;;0.85;0.85;;;22.90;99.90;;;;;;4968201;28;20098;-75
2023/08/26 11:52:00;;;;;;;0.20;0.20;;;22.80;99.90;;;;;;4953578;28;20038;-76
2023/08/26 11:54:26;;;;;;;0.20;0.20;;;22.80;99.90;;;;;;4965316;28;20073;-75
2023/08/26 11:56:52;;;;;;;0.40;0.40;;;22.80;99.90;;;;;;4979238;28;20684;-75
2023/08/26 11:59:19;;;;;;;0.63;0.63;;;22.70;99.90;;;;;;4988180;28;20046;-75
2023/08/26 12:01:45;;;;;;;0.68;0.68;;;22.50;99.90;;;;;;4970902;28;20125;-75
2023/08/26 12:04:18;;;;;;;0.40;0.32;;;22.50;99.90;;;;;;4982855;28;20125;-75
2023/08/26 12:06:44;;;;;;;0.30;0.30;;;22.60;99.90;;;;;;4979910;28;20047;-75
2023/08/26 12:09:12;;;;;;;0.20;0.20;;;22.60;99.90;;;;;;4981807;28;20049;-75
2023/08/26 12:11:39;;;;;;;0.30;0.30;;;22.60;99.90;;;;;;5005922;28;20057;-75
2023/08/26 12:14:17;;;;;;;0.35;0.35;;;22.70;99.90;;;;;;5007768;28;20390;-75
2023/08/26 12:16:42;;;;;;;0.32;0.32;;;22.70;99.90;;;;;;4978570;28;20061;-75
2023/08/26 12:19:19;;;;;;;0.30;0.30;;;22.60;99.90;;;;;;4977824;28;20042;-75
2023/08/26 12:21:50;;;;;;;0.20;0.20;;;22.50;99.90;;;;;;4984627;28;20132;-74
2023/08/26 12:24:21;;;;;;;0.40;0.40;;;22.30;99.90;;;;;;4992218;28;20057;-75
2023/08/26 12:26:47;;;;;;;0.45;0.45;;;22.20;99.90;;;;;;4990269;28;20064;-75
2023/08/26 12:29:13;;;;;;;0.30;0.30;;;22.10;99.90;;;;;;4987793;28;20050;-75
2023/08/26 12:31:39;;;;;;;0.40;0.40;;;22.10;99.90;;;;;;4987514;28;20056;-75
2023/08/26 12:34:04;;;;;;;0.45;0.45;;;22.10;99.90;;;;;;4989037;28;20590;-75
2023/08/26 12:36:30;;;;;;;0.30;0.30;;;22.20;99.90;;;;;;4991983;28;20412;-75
2023/08/26 12:38:56;;;;;;;0.38;0.38;;;22.20;99.90;;;;;;4983009;28;20503;-75
2023/08/26 12:41:22;;;;;;;0.50;0.50;;;22.20;99.90;;;;;;4974501;28;20050;-75
2023/08/26 12:43:48;;;;;;;0.40;0.40;;;22.10;99.90;;;;;;5000257;28;20034;-75
2023/08/26 12:46:14;;;;;;;0.45;0.45;;;22.10;99.90;;;;;;4990531;28;20140;-75